createdAt,value
2023-04-07T00:08:27.277Z,3.42
2023-04-07T00:13:32.195Z,4.30
2023-04-07T00:18:35.594Z,2.67
2023-04-07T00:23:38.024Z,1.85
2023-04-07T00:28:42.598Z,2.50
2023-04-07T00:33:45.086Z,3.35
2023-04-07T00:38:47.708Z,3.80
2023-04-07T00:43:52.610Z,3.90
2023-04-07T00:53:57.623Z,3.97
2023-04-07T00:59:01.354Z,4.22
2023-04-07T01:04:06.727Z,3.17
2023-04-07T01:09:12.400Z,2.42
2023-04-07T01:14:17.143Z,3.65
2023-04-07T01:19:31.865Z,3.35
2023-04-07T01:24:51.849Z,3.40
2023-04-07T01:29:56.634Z,3.28
2023-04-07T01:35:00.911Z,3.25
2023-04-07T01:40:04.535Z,3.55
2023-04-07T01:45:09.924Z,2.37
2023-04-07T01:50:12.891Z,4.00
2023-04-07T01:55:15.575Z,2.50
2023-04-07T02:00:19.541Z,3.17
2023-04-07T02:05:22.834Z,2.60
2023-04-07T02:10:35.134Z,3.33
2023-04-07T02:15:41.681Z,2.83
2023-04-07T02:20:46.238Z,1.92
2023-04-07T02:25:48.859Z,2.05
2023-04-07T02:30:52.796Z,2.10
2023-04-07T02:40:58.706Z,1.92
2023-04-07T02:46:02.664Z,2.75
2023-04-07T02:51:05.815Z,2.60
2023-04-07T02:56:08.402Z,3.60
2023-04-07T03:01:12.690Z,2.38
2023-04-07T03:06:15.630Z,2.17
2023-04-07T03:11:18.065Z,2.60
2023-04-07T03:16:25.103Z,2.10
2023-04-07T03:21:28.922Z,1.75
2023-04-07T03:26:32.187Z,1.75
2023-04-07T03:31:37.655Z,1.02
2023-04-07T03:36:40.318Z,2.05
2023-04-07T03:41:43.012Z,2.67
2023-04-07T03:46:48.329Z,1.73
2023-04-07T03:51:51.997Z,2.17
2023-04-07T03:56:54.814Z,1.60
2023-04-07T04:01:58.907Z,2.80
2023-04-07T04:07:01.916Z,4.15
2023-04-07T04:12:04.745Z,1.48
2023-04-07T04:17:08.678Z,4.07
2023-04-07T04:22:11.694Z,2.60
2023-04-07T04:27:14.940Z,1.40
2023-04-07T04:32:19.683Z,2.20
2023-04-07T04:37:23.413Z,2.80
2023-04-07T04:42:28.004Z,2.20
2023-04-07T04:47:32.047Z,2.90
2023-04-07T04:52:35.580Z,3.08
2023-04-07T04:57:38.370Z,1.92
2023-04-07T05:02:43.237Z,3.88
2023-04-07T05:07:56.170Z,2.20
2023-04-07T05:13:08.686Z,3.90
2023-04-07T05:18:12.584Z,2.47
2023-04-07T05:23:15.113Z,2.85
2023-04-07T05:28:17.987Z,1.98
2023-04-07T05:33:21.785Z,2.78
2023-04-07T05:38:24.413Z,5.78
2023-04-07T05:43:26.979Z,8.35
2023-04-07T05:48:31.223Z,3.15
2023-04-07T05:58:37.196Z,4.20
2023-04-07T06:03:41.376Z,3.35
2023-04-07T06:13:56.473Z,3.72
2023-04-07T06:19:02.281Z,3.70
2023-04-07T06:24:04.961Z,2.97
2023-04-07T06:29:07.515Z,0.85
2023-04-07T06:34:12.129Z,3.00
2023-04-07T06:44:17.282Z,3.80
2023-04-07T06:49:21.691Z,1.52
2023-04-07T06:54:24.650Z,3.80
2023-04-07T06:59:27.591Z,3.00
2023-04-07T07:04:32.533Z,2.87
2023-04-07T07:09:35.251Z,2.25
2023-04-07T07:14:37.927Z,3.30
2023-04-07T07:19:43.163Z,3.30
2023-04-07T07:24:46.158Z,2.72
2023-04-07T07:29:49.150Z,1.83
2023-04-07T07:34:52.997Z,3.72
2023-04-07T07:44:59.696Z,3.87
2023-04-07T07:50:04.347Z,3.70
2023-04-07T07:55:07.154Z,3.78
2023-04-07T08:00:10.560Z,2.90
2023-04-07T08:05:15.689Z,2.22
2023-04-07T08:10:20.257Z,2.75
2023-04-07T08:15:23.614Z,3.58
2023-04-07T08:20:27.833Z,2.05
2023-04-07T08:25:31.481Z,2.80
2023-04-07T08:30:35.322Z,2.90
2023-04-07T08:35:39.456Z,3.92
2023-04-07T08:40:42.689Z,3.83
2023-04-07T08:45:46.600Z,3.80
2023-04-07T08:50:52.941Z,4.00
2023-04-07T08:55:56.845Z,4.30
2023-04-07T09:00:59.677Z,2.70
2023-04-07T09:06:05.291Z,4.05
2023-04-07T09:11:08.473Z,3.90
2023-04-07T09:16:11.117Z,4.35
2023-04-07T09:21:15.829Z,4.20
2023-04-07T09:26:23.093Z,3.30
2023-04-07T09:31:44.665Z,4.25
2023-04-07T09:36:48.584Z,4.55
2023-04-07T09:41:52.572Z,4.78
2023-04-07T09:46:57.478Z,4.53
2023-04-07T09:52:04.989Z,4.85
2023-04-07T09:57:08.980Z,4.75
2023-04-07T10:37:37.938Z,5.50
2023-04-07T11:53:30.151Z,5.70
2023-04-07T12:43:59.497Z,4.75
2023-04-07T12:49:02.812Z,4.80
2023-04-07T12:59:09.838Z,4.47
2023-04-07T13:04:12.520Z,4.30
2023-04-07T13:09:15.990Z,4.18
2023-04-07T13:14:19.884Z,4.60
2023-04-07T13:19:22.504Z,3.75
2023-04-07T13:24:25.118Z,4.07
2023-04-07T13:29:28.997Z,4.43
2023-04-07T13:34:31.722Z,4.97
2023-04-07T13:39:34.365Z,4.63
2023-04-07T13:44:39.662Z,5.18
2023-04-07T13:49:42.207Z,4.60
2023-04-07T13:54:44.674Z,4.95
2023-04-07T13:59:52.027Z,4.43
2023-04-07T14:04:55.469Z,4.53
2023-04-07T14:09:58.694Z,4.28
2023-04-07T14:15:04.089Z,4.50
2023-04-07T14:20:07.433Z,4.40
2023-04-07T14:30:15.369Z,4.50
2023-04-07T14:35:17.944Z,4.80
2023-04-07T14:40:21.232Z,4.05
2023-04-07T14:45:32.712Z,4.28
2023-04-07T14:50:35.292Z,3.85
2023-04-07T14:55:38.608Z,4.43
2023-04-07T15:00:43.157Z,3.97
2023-04-07T15:05:46.529Z,3.72
2023-04-07T15:10:49.401Z,4.07
2023-04-07T15:15:54.268Z,3.83
2023-04-07T15:20:56.948Z,3.83
2023-04-07T15:25:59.996Z,4.47
2023-04-07T15:31:08.537Z,3.95
2023-04-07T15:36:11.542Z,3.63
2023-04-07T15:41:15.552Z,4.13
2023-04-07T15:46:20.462Z,3.85
2023-04-07T15:51:23.024Z,3.97
2023-04-07T15:56:28.491Z,3.80
2023-04-07T16:01:32.929Z,3.80
2023-04-07T16:06:35.906Z,4.22
2023-04-07T16:11:38.409Z,3.40
2023-04-07T16:16:44.407Z,4.60
2023-04-07T16:21:50.825Z,4.32
2023-04-07T16:26:55.821Z,3.60
2023-04-07T16:32:00.476Z,3.60
2023-04-07T16:37:02.926Z,4.90
2023-04-07T16:42:06.333Z,6.47
2023-04-07T16:47:10.193Z,3.60
2023-04-07T16:52:13.467Z,3.60
2023-04-07T16:57:16.015Z,4.10
2023-04-07T17:02:20.005Z,3.63
2023-04-07T17:07:23.270Z,4.00
2023-04-07T17:12:27.359Z,4.68
2023-04-07T17:17:34.124Z,5.75
2023-04-07T17:22:37.652Z,4.10
2023-04-07T17:27:40.421Z,5.07
2023-04-07T17:32:44.440Z,4.65
2023-04-07T17:37:47.344Z,3.92
2023-04-07T17:42:50.662Z,3.92
2023-04-07T17:47:54.981Z,3.97
2023-04-07T17:52:58.897Z,3.85
2023-04-07T17:58:01.990Z,3.67
2023-04-07T18:03:07.087Z,3.80
2023-04-07T18:08:11.278Z,3.95
2023-04-07T18:13:13.955Z,4.50
2023-04-07T18:18:19.464Z,3.70
2023-04-07T18:23:22.385Z,4.47
2023-04-07T18:28:25.383Z,3.88
2023-04-07T18:33:32.891Z,4.38
2023-04-07T18:38:36.491Z,4.38
2023-04-07T18:43:39.970Z,4.32
2023-04-07T18:48:44.977Z,4.75
2023-04-07T18:53:47.761Z,4.20
2023-04-07T18:58:56.345Z,4.53
2023-04-07T19:04:01.460Z,4.60
2023-04-07T19:09:04.641Z,4.25
2023-04-07T19:14:07.190Z,5.00
2023-04-07T19:19:13.365Z,4.87
2023-04-07T19:24:16.493Z,4.60
2023-04-07T19:29:24.419Z,4.40
2023-04-07T19:34:28.676Z,4.90
2023-04-07T19:39:31.483Z,4.93
2023-04-07T19:44:35.196Z,4.90
2023-04-07T19:49:39.086Z,5.93
2023-04-07T19:54:42.410Z,5.90
2023-04-07T19:59:46.639Z,5.45
2023-04-07T20:04:51.575Z,5.50
2023-04-07T20:14:57.661Z,5.68
2023-04-07T20:20:01.961Z,5.28
2023-04-07T20:30:09.008Z,5.40
2023-04-07T20:35:13.945Z,5.72
2023-04-07T20:40:16.946Z,5.85
2023-04-07T20:45:29.788Z,4.72
2023-04-07T20:50:34.008Z,5.22
2023-04-07T20:55:37.276Z,5.53
2023-04-07T21:00:39.898Z,5.18
2023-04-07T21:05:45.011Z,6.28
2023-04-07T21:10:48.263Z,6.63
2023-04-07T21:15:51.015Z,7.30
2023-04-07T21:20:56.893Z,6.93
2023-04-07T21:26:02.763Z,6.88
2023-04-07T21:31:05.964Z,7.28
2023-04-07T21:36:09.909Z,6.85
2023-04-07T21:41:12.847Z,7.18
2023-04-07T21:46:16.868Z,7.67
2023-04-07T21:51:20.817Z,6.80
2023-04-07T21:56:23.749Z,6.30
2023-04-07T22:01:27.003Z,7.35
2023-04-07T22:06:31.240Z,7.07
2023-04-07T22:11:33.806Z,7.78
2023-04-07T22:16:36.373Z,7.60
2023-04-07T22:21:40.590Z,7.07
2023-04-07T22:26:43.074Z,7.90
2023-04-07T22:31:46.005Z,7.95
2023-04-07T22:36:50.766Z,7.67
2023-04-07T22:41:53.370Z,7.85
2023-04-07T22:46:57.187Z,8.00
2023-04-07T22:52:02.871Z,8.02
2023-04-07T22:57:07.841Z,8.45
2023-04-07T23:02:10.736Z,9.02
2023-04-07T23:07:24.607Z,8.98
2023-04-07T23:12:28.019Z,7.72
2023-04-07T23:17:30.609Z,8.10
2023-04-07T23:22:34.772Z,7.95
2023-04-07T23:27:37.321Z,7.75
2023-04-07T23:32:39.873Z,5.50
2023-04-07T23:37:45.010Z,7.38
2023-04-07T23:47:51.538Z,3.63
2023-04-07T23:52:55.489Z,5.55
